sensor_id;sensor_type;location;lat;lon;timestamp;P1;durP1;ratioP1;P2;durP2;ratioP2
665;SDS011;315;48.738;9.126;2023-07-22T00:02:23;4.27;;;3.83;;
665;SDS011;315;48.738;9.126;2023-07-22T00:04:49;3.70;;;3.40;;
665;SDS011;315;48.738;9.126;2023-07-22T00:07:15;4.17;;;3.83;;
665;SDS011;315;48.738;9.126;2023-07-22T00:09:41;3.77;;;3.47;;
665;SDS011;315;48.738;9.126;2023-07-22T00:12:08;3.57;;;3.27;;
665;SDS011;315;48.738;9.126;2023-07-22T00:14:35;4.20;;;3.90;;
665;SDS011;315;48.738;9.126;2023-07-22T00:17:04;3.87;;;3.57;;
665;SDS011;315;48.738;9.126;2023-07-22T00:19:29;3.97;;;3.67;;
665;SDS011;315;48.738;9.126;2023-07-22T00:21:55;3.63;;;3.33;;
665;SDS011;315;48.738;9.126;2023-07-22T00:24:20;3.60;;;3.30;;
665;SDS011;315;48.738;9.126;2023-07-22T00:26:47;4.23;;;3.50;;
665;SDS011;315;48.738;9.126;2023-07-22T00:29:14;4.07;;;3.77;;
665;SDS011;315;48.738;9.126;2023-07-22T00:31:40;4.90;;;4.40;;
665;SDS011;315;48.738;9.126;2023-07-22T00:34:06;6.93;;;6.23;;
665;SDS011;315;48.738;9.126;2023-07-22T00:36:32;4.90;;;3.97;;
665;SDS011;315;48.738;9.126;2023-07-22T00:38:57;5.03;;;3.17;;
665;SDS011;315;48.738;9.126;2023-07-22T00:41:22;3.90;;;3.60;;
665;SDS011;315;48.738;9.126;2023-07-22T00:43:48;3.57;;;3.27;;
665;SDS011;315;48.738;9.126;2023-07-22T00:46:13;4.13;;;3.70;;
665;SDS011;315;48.738;9.126;2023-07-22T00:48:39;3.83;;;3.53;;
665;SDS011;315;48.738;9.126;2023-07-22T00:51:05;3.60;;;3.30;;
665;SDS011;315;48.738;9.126;2023-07-22T00:53:30;3.93;;;3.60;;
665;SDS011;315;48.738;9.126;2023-07-22T00:55:56;8.53;;;3.07;;
665;SDS011;315;48.738;9.126;2023-07-22T00:58:22;3.80;;;3.47;;
665;SDS011;315;48.738;9.126;2023-07-22T01:00:48;4.23;;;3.83;;
665;SDS011;315;48.738;9.126;2023-07-22T01:03:13;4.07;;;3.33;;
665;SDS011;315;48.738;9.126;2023-07-22T01:05:39;5.73;;;4.80;;
665;SDS011;315;48.738;9.126;2023-07-22T01:08:06;5.20;;;4.20;;
665;SDS011;315;48.738;9.126;2023-07-22T01:10:31;3.70;;;3.40;;
665;SDS011;315;48.738;9.126;2023-07-22T01:12:57;3.10;;;2.80;;
665;SDS011;315;48.738;9.126;2023-07-22T01:15:23;4.83;;;3.87;;
665;SDS011;315;48.738;9.126;2023-07-22T01:17:49;4.33;;;3.27;;
665;SDS011;315;48.738;9.126;2023-07-22T01:20:16;4.47;;;2.90;;
665;SDS011;315;48.738;9.126;2023-07-22T01:22:49;3.87;;;3.47;;
665;SDS011;315;48.738;9.126;2023-07-22T01:25:21;5.23;;;3.73;;
665;SDS011;315;48.738;9.126;2023-07-22T01:27:48;3.53;;;3.23;;
665;SDS011;315;48.738;9.126;2023-07-22T01:30:14;3.50;;;3.20;;
665;SDS011;315;48.738;9.126;2023-07-22T01:32:40;3.33;;;3.03;;
665;SDS011;315;48.738;9.126;2023-07-22T01:35:06;3.97;;;3.27;;
665;SDS011;315;48.738;9.126;2023-07-22T01:37:35;3.17;;;2.97;;
665;SDS011;315;48.738;9.126;2023-07-22T01:40:01;4.80;;;3.70;;
665;SDS011;315;48.738;9.126;2023-07-22T01:42:36;5.20;;;3.70;;
665;SDS011;315;48.738;9.126;2023-07-22T01:45:05;3.30;;;3.10;;
665;SDS011;315;48.738;9.126;2023-07-22T01:47:35;2.93;;;2.73;;
665;SDS011;315;48.738;9.126;2023-07-22T01:50:02;3.70;;;3.40;;
665;SDS011;315;48.738;9.126;2023-07-22T01:52:28;3.30;;;3.00;;
665;SDS011;315;48.738;9.126;2023-07-22T01:54:53;3.57;;;3.17;;
665;SDS011;315;48.738;9.126;2023-07-22T01:57:19;4.07;;;3.73;;
665;SDS011;315;48.738;9.126;2023-07-22T01:59:45;3.27;;;3.07;;
665;SDS011;315;48.738;9.126;2023-07-22T02:02:10;3.90;;;3.60;;
665;SDS011;315;48.738;9.126;2023-07-22T02:04:36;4.30;;;3.77;;
665;SDS011;315;48.738;9.126;2023-07-22T02:07:01;6.83;;;4.33;;
665;SDS011;315;48.738;9.126;2023-07-22T02:09:27;4.23;;;3.63;;
665;SDS011;315;48.738;9.126;2023-07-22T02:11:52;3.90;;;3.50;;
665;SDS011;315;48.738;9.126;2023-07-22T02:14:18;4.17;;;3.07;;
665;SDS011;315;48.738;9.126;2023-07-22T02:16:44;3.97;;;3.67;;
665;SDS011;315;48.738;9.126;2023-07-22T02:19:10;3.93;;;3.63;;
665;SDS011;315;48.738;9.126;2023-07-22T02:21:35;3.87;;;3.57;;
665;SDS011;315;48.738;9.126;2023-07-22T02:24:01;3.80;;;3.50;;
665;SDS011;315;48.738;9.126;2023-07-22T02:26:26;4.13;;;3.73;;
665;SDS011;315;48.738;9.126;2023-07-22T02:28:52;4.03;;;3.30;;
665;SDS011;315;48.738;9.126;2023-07-22T02:31:17;5.63;;;3.70;;
665;SDS011;315;48.738;9.126;2023-07-22T02:33:43;3.60;;;3.30;;
665;SDS011;315;48.738;9.126;2023-07-22T02:36:08;4.77;;;4.00;;
665;SDS011;315;48.738;9.126;2023-07-22T02:38:34;4.33;;;4.03;;
665;SDS011;315;48.738;9.126;2023-07-22T02:41:03;3.60;;;3.30;;
665;SDS011;315;48.738;9.126;2023-07-22T02:43:31;4.30;;;3.83;;
665;SDS011;315;48.738;9.126;2023-07-22T02:45:57;3.70;;;3.37;;
665;SDS011;315;48.738;9.126;2023-07-22T02:48:24;4.33;;;3.93;;
665;SDS011;315;48.738;9.126;2023-07-22T02:50:49;4.73;;;4.33;;
665;SDS011;315;48.738;9.126;2023-07-22T02:53:15;4.33;;;3.90;;
665;SDS011;315;48.738;9.126;2023-07-22T02:55:40;5.33;;;3.93;;
665;SDS011;315;48.738;9.126;2023-07-22T02:58:06;4.27;;;3.87;;
665;SDS011;315;48.738;9.126;2023-07-22T03:00:32;3.60;;;3.30;;
665;SDS011;315;48.738;9.126;2023-07-22T03:02:57;4.70;;;3.80;;
665;SDS011;315;48.738;9.126;2023-07-22T03:05:26;3.77;;;3.47;;
665;SDS011;315;48.738;9.126;2023-07-22T03:07:53;3.50;;;3.20;;
665;SDS011;315;48.738;9.126;2023-07-22T03:10:18;4.30;;;3.90;;
665;SDS011;315;48.738;9.126;2023-07-22T03:12:44;4.97;;;4.57;;
665;SDS011;315;48.738;9.126;2023-07-22T03:15:10;2.90;;;2.70;;
665;SDS011;315;48.738;9.126;2023-07-22T03:17:37;3.90;;;3.60;;
665;SDS011;315;48.738;9.126;2023-07-22T03:20:04;4.90;;;3.77;;
665;SDS011;315;48.738;9.126;2023-07-22T03:22:34;3.93;;;3.50;;
665;SDS011;315;48.738;9.126;2023-07-22T03:24:59;4.20;;;3.80;;
665;SDS011;315;48.738;9.126;2023-07-22T03:27:25;4.17;;;3.80;;
665;SDS011;315;48.738;9.126;2023-07-22T03:29:50;3.30;;;3.00;;
665;SDS011;315;48.738;9.126;2023-07-22T03:32:16;3.70;;;3.40;;
665;SDS011;315;48.738;9.126;2023-07-22T03:34:41;3.50;;;3.30;;
665;SDS011;315;48.738;9.126;2023-07-22T03:37:07;5.27;;;4.03;;
665;SDS011;315;48.738;9.126;2023-07-22T03:39:32;4.07;;;3.70;;
665;SDS011;315;48.738;9.126;2023-07-22T03:41:57;5.93;;;4.00;;
665;SDS011;315;48.738;9.126;2023-07-22T03:44:23;4.53;;;4.00;;
665;SDS011;315;48.738;9.126;2023-07-22T03:46:49;4.73;;;3.80;;
665;SDS011;315;48.738;9.126;2023-07-22T03:49:14;4.00;;;3.23;;
665;SDS011;315;48.738;9.126;2023-07-22T03:51:40;4.13;;;3.83;;
665;SDS011;315;48.738;9.126;2023-07-22T03:54:05;4.47;;;4.07;;
665;SDS011;315;48.738;9.126;2023-07-22T03:56:31;4.33;;;3.60;;
665;SDS011;315;48.738;9.126;2023-07-22T03:58:56;3.97;;;3.67;;
665;SDS011;315;48.738;9.126;2023-07-22T04:01:22;4.33;;;3.80;;
665;SDS011;315;48.738;9.126;2023-07-22T04:03:47;4.57;;;3.40;;
665;SDS011;315;48.738;9.126;2023-07-22T04:06:13;4.40;;;3.50;;
665;SDS011;315;48.738;9.126;2023-07-22T04:08:38;4.47;;;3.13;;
665;SDS011;315;48.738;9.126;2023-07-22T04:11:04;3.80;;;3.40;;
665;SDS011;315;48.738;9.126;2023-07-22T04:13:29;3.93;;;3.53;;
665;SDS011;315;48.738;9.126;2023-07-22T04:15:55;4.13;;;3.20;;
665;SDS011;315;48.738;9.126;2023-07-22T04:18:21;3.77;;;3.47;;
665;SDS011;315;48.738;9.126;2023-07-22T04:20:46;3.57;;;3.27;;
665;SDS011;315;48.738;9.126;2023-07-22T04:23:13;6.10;;;3.57;;
665;SDS011;315;48.738;9.126;2023-07-22T04:25:39;4.90;;;3.70;;
665;SDS011;315;48.738;9.126;2023-07-22T04:28:05;5.83;;;3.77;;
665;SDS011;315;48.738;9.126;2023-07-22T04:30:31;3.90;;;3.60;;
665;SDS011;315;48.738;9.126;2023-07-22T04:32:57;4.83;;;4.33;;
665;SDS011;315;48.738;9.126;2023-07-22T04:35:22;4.97;;;4.47;;
665;SDS011;315;48.738;9.126;2023-07-22T04:37:48;4.20;;;3.90;;
665;SDS011;315;48.738;9.126;2023-07-22T04:40:13;5.10;;;4.40;;
665;SDS011;315;48.738;9.126;2023-07-22T04:42:41;4.80;;;4.30;;
665;SDS011;315;48.738;9.126;2023-07-22T04:45:07;5.47;;;4.97;;
665;SDS011;315;48.738;9.126;2023-07-22T04:47:34;4.60;;;3.43;;
665;SDS011;315;48.738;9.126;2023-07-22T04:50:00;4.30;;;3.60;;
665;SDS011;315;48.738;9.126;2023-07-22T04:52:26;6.60;;;3.80;;
665;SDS011;315;48.738;9.126;2023-07-22T04:54:51;3.80;;;3.50;;
665;SDS011;315;48.738;9.126;2023-07-22T04:57:18;4.27;;;3.67;;
665;SDS011;315;48.738;9.126;2023-07-22T04:59:45;4.50;;;4.10;;
665;SDS011;315;48.738;9.126;2023-07-22T05:02:11;4.10;;;3.60;;
665;SDS011;315;48.738;9.126;2023-07-22T05:04:36;4.10;;;3.80;;
665;SDS011;315;48.738;9.126;2023-07-22T05:07:02;3.87;;;3.57;;
665;SDS011;315;48.738;9.126;2023-07-22T05:09:28;4.03;;;3.73;;
665;SDS011;315;48.738;9.126;2023-07-22T05:11:53;5.23;;;4.50;;
665;SDS011;315;48.738;9.126;2023-07-22T05:14:19;3.77;;;3.47;;
665;SDS011;315;48.738;9.126;2023-07-22T05:16:45;4.10;;;3.67;;
665;SDS011;315;48.738;9.126;2023-07-22T05:19:10;5.63;;;4.23;;
665;SDS011;315;48.738;9.126;2023-07-22T05:21:36;4.90;;;3.93;;
665;SDS011;315;48.738;9.126;2023-07-22T05:24:01;4.00;;;3.60;;
665;SDS011;315;48.738;9.126;2023-07-22T05:26:27;3.50;;;3.20;;
665;SDS011;315;48.738;9.126;2023-07-22T05:28:52;4.50;;;3.73;;
665;SDS011;315;48.738;9.126;2023-07-22T05:31:18;3.80;;;3.23;;
665;SDS011;315;48.738;9.126;2023-07-22T05:33:44;4.77;;;3.87;;
665;SDS011;315;48.738;9.126;2023-07-22T05:36:09;3.97;;;3.67;;
665;SDS011;315;48.738;9.126;2023-07-22T05:38:35;5.17;;;3.60;;
665;SDS011;315;48.738;9.126;2023-07-22T05:41:00;3.73;;;3.53;;
665;SDS011;315;48.738;9.126;2023-07-22T05:43:26;3.83;;;3.50;;
665;SDS011;315;48.738;9.126;2023-07-22T05:45:52;8.10;;;5.20;;
665;SDS011;315;48.738;9.126;2023-07-22T05:48:17;3.83;;;3.43;;
665;SDS011;315;48.738;9.126;2023-07-22T05:50:43;6.17;;;4.07;;
665;SDS011;315;48.738;9.126;2023-07-22T05:53:08;4.20;;;3.80;;
665;SDS011;315;48.738;9.126;2023-07-22T05:55:34;5.77;;;3.33;;
665;SDS011;315;48.738;9.126;2023-07-22T05:57:59;3.60;;;3.30;;
665;SDS011;315;48.738;9.126;2023-07-22T06:00:30;8.70;;;3.77;;
665;SDS011;315;48.738;9.126;2023-07-22T06:02:56;6.80;;;3.57;;
665;SDS011;315;48.738;9.126;2023-07-22T06:05:21;3.30;;;3.00;;
665;SDS011;315;48.738;9.126;2023-07-22T06:07:47;3.30;;;3.10;;
665;SDS011;315;48.738;9.126;2023-07-22T06:10:12;3.87;;;3.57;;
665;SDS011;315;48.738;9.126;2023-07-22T06:12:38;4.40;;;3.60;;
665;SDS011;315;48.738;9.126;2023-07-22T06:15:04;4.03;;;3.67;;
665;SDS011;315;48.738;9.126;2023-07-22T06:17:30;3.57;;;3.13;;
665;SDS011;315;48.738;9.126;2023-07-22T06:19:56;4.20;;;3.17;;
665;SDS011;315;48.738;9.126;2023-07-22T06:22:21;4.10;;;3.77;;
665;SDS011;315;48.738;9.126;2023-07-22T06:24:47;6.40;;;3.57;;
665;SDS011;315;48.738;9.126;2023-07-22T06:27:12;3.50;;;3.20;;
665;SDS011;315;48.738;9.126;2023-07-22T06:29:38;3.30;;;3.10;;
665;SDS011;315;48.738;9.126;2023-07-22T06:32:03;3.10;;;2.90;;
665;SDS011;315;48.738;9.126;2023-07-22T06:34:29;3.80;;;3.50;;
665;SDS011;315;48.738;9.126;2023-07-22T06:36:55;3.47;;;3.17;;
665;SDS011;315;48.738;9.126;2023-07-22T06:39:20;4.57;;;3.07;;
665;SDS011;315;48.738;9.126;2023-07-22T06:41:46;3.50;;;3.10;;
665;SDS011;315;48.738;9.126;2023-07-22T06:44:11;3.87;;;2.90;;
665;SDS011;315;48.738;9.126;2023-07-22T06:46:36;2.87;;;2.57;;
665;SDS011;315;48.738;9.126;2023-07-22T06:49:02;3.43;;;3.13;;
665;SDS011;315;48.738;9.126;2023-07-22T06:51:27;2.57;;;2.23;;
665;SDS011;315;48.738;9.126;2023-07-22T06:53:53;3.20;;;3.00;;
665;SDS011;315;48.738;9.126;2023-07-22T06:56:19;2.93;;;2.60;;
665;SDS011;315;48.738;9.126;2023-07-22T06:58:44;2.93;;;2.70;;
665;SDS011;315;48.738;9.126;2023-07-22T07:01:10;2.90;;;2.70;;
665;SDS011;315;48.738;9.126;2023-07-22T07:03:35;3.80;;;2.90;;
665;SDS011;315;48.738;9.126;2023-07-22T07:06:00;3.20;;;2.90;;
665;SDS011;315;48.738;9.126;2023-07-22T07:08:26;2.90;;;2.63;;
665;SDS011;315;48.738;9.126;2023-07-22T07:10:52;2.87;;;2.47;;
665;SDS011;315;48.738;9.126;2023-07-22T07:13:17;3.00;;;2.70;;
665;SDS011;315;48.738;9.126;2023-07-22T07:15:46;3.40;;;3.00;;
665;SDS011;315;48.738;9.126;2023-07-22T07:18:13;4.40;;;2.93;;
665;SDS011;315;48.738;9.126;2023-07-22T07:20:39;2.67;;;2.47;;
665;SDS011;315;48.738;9.126;2023-07-22T07:23:04;2.27;;;2.07;;
665;SDS011;315;48.738;9.126;2023-07-22T07:25:30;3.33;;;3.03;;
665;SDS011;315;48.738;9.126;2023-07-22T07:27:55;4.80;;;3.47;;
665;SDS011;315;48.738;9.126;2023-07-22T07:30:21;4.63;;;3.90;;
665;SDS011;315;48.738;9.126;2023-07-22T07:32:46;3.10;;;2.87;;
665;SDS011;315;48.738;9.126;2023-07-22T07:35:12;2.70;;;2.50;;
665;SDS011;315;48.738;9.126;2023-07-22T07:37:37;2.80;;;2.60;;
665;SDS011;315;48.738;9.126;2023-07-22T07:40:03;3.77;;;2.50;;
665;SDS011;315;48.738;9.126;2023-07-22T07:42:29;4.60;;;2.73;;
665;SDS011;315;48.738;9.126;2023-07-22T07:44:54;3.43;;;3.10;;
665;SDS011;315;48.738;9.126;2023-07-22T07:47:20;3.03;;;2.73;;
665;SDS011;315;48.738;9.126;2023-07-22T07:49:46;2.40;;;2.20;;
665;SDS011;315;48.738;9.126;2023-07-22T07:52:11;3.33;;;2.80;;
665;SDS011;315;48.738;9.126;2023-07-22T07:54:37;2.60;;;2.40;;
665;SDS011;315;48.738;9.126;2023-07-22T07:57:03;3.30;;;2.90;;
665;SDS011;315;48.738;9.126;2023-07-22T07:59:28;4.47;;;3.00;;
665;SDS011;315;48.738;9.126;2023-07-22T08:01:54;3.47;;;2.90;;
665;SDS011;315;48.738;9.126;2023-07-22T08:04:19;2.60;;;2.40;;
665;SDS011;315;48.738;9.126;2023-07-22T08:06:45;2.67;;;2.43;;
665;SDS011;315;48.738;9.126;2023-07-22T08:09:10;3.00;;;2.80;;
665;SDS011;315;48.738;9.126;2023-07-22T08:11:37;5.53;;;2.83;;
665;SDS011;315;48.738;9.126;2023-07-22T08:14:03;2.97;;;2.70;;
665;SDS011;315;48.738;9.126;2023-07-22T08:16:30;3.17;;;2.87;;
665;SDS011;315;48.738;9.126;2023-07-22T08:18:56;2.60;;;2.40;;
665;SDS011;315;48.738;9.126;2023-07-22T08:21:21;3.33;;;2.40;;
665;SDS011;315;48.738;9.126;2023-07-22T08:23:47;2.73;;;2.20;;
665;SDS011;315;48.738;9.126;2023-07-22T08:26:12;4.27;;;2.20;;
665;SDS011;315;48.738;9.126;2023-07-22T08:28:38;2.50;;;2.30;;
665;SDS011;315;48.738;9.126;2023-07-22T08:31:04;2.80;;;2.60;;
665;SDS011;315;48.738;9.126;2023-07-22T08:33:30;3.13;;;2.93;;
665;SDS011;315;48.738;9.126;2023-07-22T08:35:56;4.00;;;2.47;;
665;SDS011;315;48.738;9.126;2023-07-22T08:38:21;3.70;;;2.83;;
665;SDS011;315;48.738;9.126;2023-07-22T08:40:50;2.30;;;2.10;;
665;SDS011;315;48.738;9.126;2023-07-22T08:43:16;2.17;;;1.97;;
665;SDS011;315;48.738;9.126;2023-07-22T08:45:45;4.57;;;2.40;;
665;SDS011;315;48.738;9.126;2023-07-22T08:48:12;4.93;;;2.70;;
665;SDS011;315;48.738;9.126;2023-07-22T08:50:49;2.60;;;2.40;;
665;SDS011;315;48.738;9.126;2023-07-22T08:53:18;4.23;;;2.20;;
665;SDS011;315;48.738;9.126;2023-07-22T08:55:44;2.33;;;2.13;;
665;SDS011;315;48.738;9.126;2023-07-22T08:58:10;2.43;;;2.23;;
665;SDS011;315;48.738;9.126;2023-07-22T09:00:37;1.93;;;1.83;;
665;SDS011;315;48.738;9.126;2023-07-22T09:03:03;2.30;;;2.10;;
665;SDS011;315;48.738;9.126;2023-07-22T09:05:30;4.27;;;2.50;;
665;SDS011;315;48.738;9.126;2023-07-22T09:07:57;2.63;;;2.07;;
665;SDS011;315;48.738;9.126;2023-07-22T09:10:24;2.20;;;2.00;;
665;SDS011;315;48.738;9.126;2023-07-22T09:12:52;2.50;;;1.73;;
665;SDS011;315;48.738;9.126;2023-07-22T09:15:18;2.77;;;2.20;;
665;SDS011;315;48.738;9.126;2023-07-22T09:17:44;3.40;;;2.73;;
665;SDS011;315;48.738;9.126;2023-07-22T09:20:11;3.50;;;2.50;;
665;SDS011;315;48.738;9.126;2023-07-22T09:22:42;3.00;;;2.70;;
665;SDS011;315;48.738;9.126;2023-07-22T09:25:17;2.73;;;2.13;;
665;SDS011;315;48.738;9.126;2023-07-22T09:27:48;2.50;;;2.30;;
665;SDS011;315;48.738;9.126;2023-07-22T09:32:49;2.53;;;1.87;;
665;SDS011;315;48.738;9.126;2023-07-22T09:35:15;2.30;;;2.10;;
665;SDS011;315;48.738;9.126;2023-07-22T09:37:41;3.10;;;2.90;;
665;SDS011;315;48.738;9.126;2023-07-22T09:40:17;8.80;;;3.33;;
665;SDS011;315;48.738;9.126;2023-07-22T09:42:48;2.47;;;2.27;;
665;SDS011;315;48.738;9.126;2023-07-22T09:45:22;2.23;;;2.13;;
665;SDS011;315;48.738;9.126;2023-07-22T09:47:50;2.77;;;2.23;;
665;SDS011;315;48.738;9.126;2023-07-22T09:50:17;2.70;;;2.50;;
665;SDS011;315;48.738;9.126;2023-07-22T09:52:47;2.10;;;1.90;;
665;SDS011;315;48.738;9.126;2023-07-22T09:55:14;2.10;;;2.00;;
665;SDS011;315;48.738;9.126;2023-07-22T09:57:43;2.20;;;2.10;;
665;SDS011;315;48.738;9.126;2023-07-22T10:00:14;2.07;;;1.93;;
665;SDS011;315;48.738;9.126;2023-07-22T10:02:41;2.20;;;2.00;;
665;SDS011;315;48.738;9.126;2023-07-22T10:05:12;2.50;;;2.30;;
665;SDS011;315;48.738;9.126;2023-07-22T10:07:49;2.10;;;1.90;;
665;SDS011;315;48.738;9.126;2023-07-22T10:10:19;2.87;;;2.57;;
665;SDS011;315;48.738;9.126;2023-07-22T10:12:47;3.57;;;1.97;;
665;SDS011;315;48.738;9.126;2023-07-22T10:15:14;1.93;;;1.83;;
665;SDS011;315;48.738;9.126;2023-07-22T10:17:41;2.20;;;1.63;;
665;SDS011;315;48.738;9.126;2023-07-22T10:20:08;2.60;;;2.40;;
665;SDS011;315;48.738;9.126;2023-07-22T10:22:40;2.23;;;1.70;;
665;SDS011;315;48.738;9.126;2023-07-22T10:25:10;2.43;;;2.30;;
665;SDS011;315;48.738;9.126;2023-07-22T10:27:38;2.57;;;2.37;;
665;SDS011;315;48.738;9.126;2023-07-22T10:30:05;1.87;;;1.77;;
665;SDS011;315;48.738;9.126;2023-07-22T10:32:33;2.60;;;2.40;;
665;SDS011;315;48.738;9.126;2023-07-22T10:35:00;3.10;;;2.33;;
665;SDS011;315;48.738;9.126;2023-07-22T10:37:32;2.40;;;2.20;;
665;SDS011;315;48.738;9.126;2023-07-22T10:42:50;2.43;;;2.30;;
665;SDS011;315;48.738;9.126;2023-07-22T10:45:29;1.90;;;1.80;;
665;SDS011;315;48.738;9.126;2023-07-22T10:48:00;3.50;;;2.60;;
665;SDS011;315;48.738;9.126;2023-07-22T10:50:43;3.53;;;3.23;;
665;SDS011;315;48.738;9.126;2023-07-22T10:53:12;2.93;;;2.67;;
665;SDS011;315;48.738;9.126;2023-07-22T11:04:06;3.50;;;2.67;;
665;SDS011;315;48.738;9.126;2023-07-22T11:17:06;2.80;;;2.57;;
665;SDS011;315;48.738;9.126;2023-07-22T11:19:36;2.70;;;2.50;;
665;SDS011;315;48.738;9.126;2023-07-22T11:22:02;2.60;;;2.40;;
665;SDS011;315;48.738;9.126;2023-07-22T11:24:29;2.70;;;2.50;;
665;SDS011;315;48.738;9.126;2023-07-22T11:26:58;2.33;;;2.13;;
665;SDS011;315;48.738;9.126;2023-07-22T11:29:24;2.70;;;2.50;;
665;SDS011;315;48.738;9.126;2023-07-22T11:31:50;2.67;;;2.40;;
665;SDS011;315;48.738;9.126;2023-07-22T11:34:17;2.97;;;2.77;;
665;SDS011;315;48.738;9.126;2023-07-22T11:36:44;4.77;;;2.50;;
665;SDS011;315;48.738;9.126;2023-07-22T11:39:11;2.53;;;2.33;;
665;SDS011;315;48.738;9.126;2023-07-22T11:41:38;5.20;;;2.03;;
665;SDS011;315;48.738;9.126;2023-07-22T11:44:06;2.77;;;2.57;;
665;SDS011;315;48.738;9.126;2023-07-22T11:46:46;3.53;;;2.57;;
665;SDS011;315;48.738;9.126;2023-07-22T11:49:21;2.43;;;2.23;;
665;SDS011;315;48.738;9.126;2023-07-22T11:51:58;3.37;;;2.67;;
665;SDS011;315;48.738;9.126;2023-07-22T11:54:28;3.30;;;2.80;;
665;SDS011;315;48.738;9.126;2023-07-22T11:56:55;2.50;;;2.30;;
665;SDS011;315;48.738;9.126;2023-07-22T11:59:34;2.20;;;2.10;;
665;SDS011;315;48.738;9.126;2023-07-22T12:02:00;3.27;;;3.07;;
665;SDS011;315;48.738;9.126;2023-07-22T12:04:26;2.80;;;2.60;;
665;SDS011;315;48.738;9.126;2023-07-22T12:06:52;2.40;;;2.30;;
665;SDS011;315;48.738;9.126;2023-07-22T12:09:17;2.83;;;2.63;;
665;SDS011;315;48.738;9.126;2023-07-22T12:11:43;3.43;;;2.67;;
665;SDS011;315;48.738;9.126;2023-07-22T12:14:10;3.13;;;2.93;;
665;SDS011;315;48.738;9.126;2023-07-22T12:16:38;2.63;;;2.40;;
665;SDS011;315;48.738;9.126;2023-07-22T12:19:05;2.30;;;2.10;;
665;SDS011;315;48.738;9.126;2023-07-22T12:21:31;2.90;;;2.70;;
665;SDS011;315;48.738;9.126;2023-07-22T12:23:56;4.93;;;2.60;;
665;SDS011;315;48.738;9.126;2023-07-22T12:26:22;2.60;;;2.40;;
665;SDS011;315;48.738;9.126;2023-07-22T12:28:48;2.30;;;2.20;;
665;SDS011;315;48.738;9.126;2023-07-22T12:31:14;2.50;;;2.30;;
665;SDS011;315;48.738;9.126;2023-07-22T12:33:39;3.03;;;2.77;;
665;SDS011;315;48.738;9.126;2023-07-22T12:36:05;2.53;;;2.43;;
665;SDS011;315;48.738;9.126;2023-07-22T12:38:31;3.07;;;2.87;;
665;SDS011;315;48.738;9.126;2023-07-22T12:40:57;2.63;;;2.43;;
665;SDS011;315;48.738;9.126;2023-07-22T12:43:22;2.93;;;2.47;;
665;SDS011;315;48.738;9.126;2023-07-22T12:45:48;3.00;;;2.80;;
665;SDS011;315;48.738;9.126;2023-07-22T12:48:13;3.10;;;2.90;;
665;SDS011;315;48.738;9.126;2023-07-22T12:50:39;3.53;;;3.30;;
665;SDS011;315;48.738;9.126;2023-07-22T12:53:04;3.93;;;3.47;;
665;SDS011;315;48.738;9.126;2023-07-22T12:55:30;3.40;;;3.20;;
665;SDS011;315;48.738;9.126;2023-07-22T12:57:56;3.50;;;3.13;;
665;SDS011;315;48.738;9.126;2023-07-22T13:00:21;4.03;;;3.73;;
665;SDS011;315;48.738;9.126;2023-07-22T13:02:47;5.13;;;3.80;;
665;SDS011;315;48.738;9.126;2023-07-22T13:05:13;5.50;;;4.50;;
665;SDS011;315;48.738;9.126;2023-07-22T13:07:38;3.10;;;2.90;;
665;SDS011;315;48.738;9.126;2023-07-22T13:10:04;3.70;;;3.50;;
665;SDS011;315;48.738;9.126;2023-07-22T13:12:33;3.10;;;2.90;;
665;SDS011;315;48.738;9.126;2023-07-22T13:14:59;2.50;;;2.30;;
665;SDS011;315;48.738;9.126;2023-07-22T13:17:25;3.80;;;3.60;;
665;SDS011;315;48.738;9.126;2023-07-22T13:19:50;3.23;;;2.93;;
665;SDS011;315;48.738;9.126;2023-07-22T13:22:16;3.77;;;3.20;;
665;SDS011;315;48.738;9.126;2023-07-22T13:24:41;4.20;;;3.90;;
665;SDS011;315;48.738;9.126;2023-07-22T13:27:07;3.70;;;3.40;;
665;SDS011;315;48.738;9.126;2023-07-22T13:29:33;3.50;;;3.20;;
665;SDS011;315;48.738;9.126;2023-07-22T13:31:58;3.70;;;3.40;;
665;SDS011;315;48.738;9.126;2023-07-22T13:34:24;3.50;;;2.90;;
665;SDS011;315;48.738;9.126;2023-07-22T13:36:50;3.83;;;3.53;;
665;SDS011;315;48.738;9.126;2023-07-22T13:39:16;3.47;;;3.17;;
665;SDS011;315;48.738;9.126;2023-07-22T13:41:41;4.00;;;3.27;;
665;SDS011;315;48.738;9.126;2023-07-22T13:44:07;3.83;;;3.53;;
665;SDS011;315;48.738;9.126;2023-07-22T13:46:32;3.33;;;2.97;;
665;SDS011;315;48.738;9.126;2023-07-22T13:48:58;3.07;;;2.87;;
665;SDS011;315;48.738;9.126;2023-07-22T13:51:23;3.80;;;3.37;;
665;SDS011;315;48.738;9.126;2023-07-22T13:53:49;4.00;;;3.60;;
665;SDS011;315;48.738;9.126;2023-07-22T13:56:16;3.47;;;2.50;;
665;SDS011;315;48.738;9.126;2023-07-22T13:58:42;4.57;;;4.17;;
665;SDS011;315;48.738;9.126;2023-07-22T14:01:08;4.03;;;3.73;;
665;SDS011;315;48.738;9.126;2023-07-22T14:03:33;3.07;;;2.87;;
665;SDS011;315;48.738;9.126;2023-07-22T14:05:59;3.60;;;2.90;;
665;SDS011;315;48.738;9.126;2023-07-22T14:08:24;3.57;;;3.30;;
665;SDS011;315;48.738;9.126;2023-07-22T14:10:50;3.50;;;3.20;;
665;SDS011;315;48.738;9.126;2023-07-22T14:13:15;4.00;;;3.70;;
665;SDS011;315;48.738;9.126;2023-07-22T14:15:41;3.83;;;3.53;;
665;SDS011;315;48.738;9.126;2023-07-22T14:18:07;4.47;;;2.90;;
665;SDS011;315;48.738;9.126;2023-07-22T14:20:32;3.50;;;3.20;;
665;SDS011;315;48.738;9.126;2023-07-22T14:22:58;3.13;;;2.90;;
665;SDS011;315;48.738;9.126;2023-07-22T14:25:24;3.80;;;3.50;;
665;SDS011;315;48.738;9.126;2023-07-22T14:27:49;3.80;;;2.97;;
665;SDS011;315;48.738;9.126;2023-07-22T14:30:15;2.93;;;2.73;;
665;SDS011;315;48.738;9.126;2023-07-22T14:32:41;6.40;;;3.70;;
665;SDS011;315;48.738;9.126;2023-07-22T14:35:06;3.10;;;2.80;;
665;SDS011;315;48.738;9.126;2023-07-22T14:37:32;3.30;;;3.10;;
665;SDS011;315;48.738;9.126;2023-07-22T14:39:58;3.73;;;3.43;;
665;SDS011;315;48.738;9.126;2023-07-22T14:42:24;4.00;;;3.70;;
665;SDS011;315;48.738;9.126;2023-07-22T14:44:50;3.87;;;3.57;;
665;SDS011;315;48.738;9.126;2023-07-22T14:47:15;3.67;;;3.37;;
665;SDS011;315;48.738;9.126;2023-07-22T14:49:41;3.93;;;3.63;;
665;SDS011;315;48.738;9.126;2023-07-22T14:52:06;3.70;;;3.40;;
665;SDS011;315;48.738;9.126;2023-07-22T14:54:32;3.03;;;2.83;;
665;SDS011;315;48.738;9.126;2023-07-22T14:56:58;4.83;;;4.13;;
665;SDS011;315;48.738;9.126;2023-07-22T14:59:24;5.47;;;4.00;;
665;SDS011;315;48.738;9.126;2023-07-22T15:01:51;4.10;;;3.80;;
665;SDS011;315;48.738;9.126;2023-07-22T15:04:17;3.50;;;3.20;;
665;SDS011;315;48.738;9.126;2023-07-22T15:06:43;3.60;;;3.30;;
665;SDS011;315;48.738;9.126;2023-07-22T15:09:08;4.10;;;3.30;;
665;SDS011;315;48.738;9.126;2023-07-22T15:11:35;4.60;;;3.70;;
665;SDS011;315;48.738;9.126;2023-07-22T15:14:04;3.40;;;2.93;;
665;SDS011;315;48.738;9.126;2023-07-22T15:16:30;3.90;;;3.60;;
665;SDS011;315;48.738;9.126;2023-07-22T15:18:56;5.40;;;3.63;;
665;SDS011;315;48.738;9.126;2023-07-22T15:21:22;4.80;;;3.90;;
665;SDS011;315;48.738;9.126;2023-07-22T15:23:47;5.23;;;4.13;;
665;SDS011;315;48.738;9.126;2023-07-22T15:26:13;5.13;;;4.67;;
665;SDS011;315;48.738;9.126;2023-07-22T15:28:38;4.90;;;4.20;;
665;SDS011;315;48.738;9.126;2023-07-22T15:31:05;5.10;;;4.43;;
665;SDS011;315;48.738;9.126;2023-07-22T15:33:31;4.93;;;4.60;;
665;SDS011;315;48.738;9.126;2023-07-22T15:35:57;4.37;;;3.97;;
665;SDS011;315;48.738;9.126;2023-07-22T15:38:23;6.97;;;6.10;;
665;SDS011;315;48.738;9.126;2023-07-22T15:40:49;7.70;;;7.00;;
665;SDS011;315;48.738;9.126;2023-07-22T15:43:15;5.70;;;5.20;;
665;SDS011;315;48.738;9.126;2023-07-22T15:45:42;6.60;;;5.37;;
665;SDS011;315;48.738;9.126;2023-07-22T15:48:07;5.10;;;4.70;;
665;SDS011;315;48.738;9.126;2023-07-22T15:50:33;4.27;;;3.97;;
665;SDS011;315;48.738;9.126;2023-07-22T15:52:58;4.67;;;4.27;;
665;SDS011;315;48.738;9.126;2023-07-22T15:55:24;4.23;;;3.93;;
665;SDS011;315;48.738;9.126;2023-07-22T15:57:49;6.03;;;3.80;;
665;SDS011;315;48.738;9.126;2023-07-22T16:00:15;3.93;;;3.63;;
665;SDS011;315;48.738;9.126;2023-07-22T16:02:40;4.10;;;3.80;;
665;SDS011;315;48.738;9.126;2023-07-22T16:05:06;3.90;;;3.60;;